sensor_id;sensor_type;location;lat;lon;timestamp;P1;durP1;ratioP1;P2;durP2;ratioP2
15990;SDS011;8100;50.994;4.538;2024-01-30T00:01:45;7.28;;;4.55;;
15990;SDS011;8100;50.994;4.538;2024-01-30T00:04:32;6.60;;;4.15;;
15990;SDS011;8100;50.994;4.538;2024-01-30T00:07:19;5.85;;;4.30;;
15990;SDS011;8100;50.994;4.538;2024-01-30T00:10:06;8.43;;;4.53;;
15990;SDS011;8100;50.994;4.538;2024-01-30T00:12:55;13.10;;;5.22;;
15990;SDS011;8100;50.994;4.538;2024-01-30T00:15:42;7.32;;;4.72;;
15990;SDS011;8100;50.994;4.538;2024-01-30T00:18:29;9.27;;;4.82;;
15990;SDS011;8100;50.994;4.538;2024-01-30T00:21:16;8.30;;;4.00;;
15990;SDS011;8100;50.994;4.538;2024-01-30T00:24:03;6.97;;;3.67;;
15990;SDS011;8100;50.994;4.538;2024-01-30T00:26:51;9.10;;;3.53;;
15990;SDS011;8100;50.994;4.538;2024-01-30T00:29:39;7.22;;;3.95;;
15990;SDS011;8100;50.994;4.538;2024-01-30T00:32:26;5.28;;;3.42;;
15990;SDS011;8100;50.994;4.538;2024-01-30T00:35:13;3.97;;;3.20;;
15990;SDS011;8100;50.994;4.538;2024-01-30T00:38:00;4.55;;;3.13;;
15990;SDS011;8100;50.994;4.538;2024-01-30T00:40:47;4.90;;;3.03;;
15990;SDS011;8100;50.994;4.538;2024-01-30T00:43:34;5.60;;;3.28;;
15990;SDS011;8100;50.994;4.538;2024-01-30T00:46:22;4.43;;;3.08;;
15990;SDS011;8100;50.994;4.538;2024-01-30T00:49:10;6.32;;;2.92;;
15990;SDS011;8100;50.994;4.538;2024-01-30T00:51:57;4.22;;;3.00;;
15990;SDS011;8100;50.994;4.538;2024-01-30T00:54:44;5.47;;;3.13;;
15990;SDS011;8100;50.994;4.538;2024-01-30T00:57:31;4.32;;;2.97;;
15990;SDS011;8100;50.994;4.538;2024-01-30T01:00:18;4.88;;;3.15;;
15990;SDS011;8100;50.994;4.538;2024-01-30T01:03:07;4.63;;;2.85;;
15990;SDS011;8100;50.994;4.538;2024-01-30T01:05:54;4.80;;;3.08;;
15990;SDS011;8100;50.994;4.538;2024-01-30T01:08:41;6.05;;;2.90;;
15990;SDS011;8100;50.994;4.538;2024-01-30T01:11:28;5.07;;;2.75;;
15990;SDS011;8100;50.994;4.538;2024-01-30T01:14:15;2.92;;;2.45;;
15990;SDS011;8100;50.994;4.538;2024-01-30T01:17:02;5.60;;;2.75;;
15990;SDS011;8100;50.994;4.538;2024-01-30T01:19:51;4.65;;;2.78;;
15990;SDS011;8100;50.994;4.538;2024-01-30T01:22:38;4.53;;;2.60;;
15990;SDS011;8100;50.994;4.538;2024-01-30T01:25:25;5.20;;;2.80;;
15990;SDS011;8100;50.994;4.538;2024-01-30T01:28:12;8.32;;;3.30;;
15990;SDS011;8100;50.994;4.538;2024-01-30T01:30:59;6.72;;;3.47;;
15990;SDS011;8100;50.994;4.538;2024-01-30T01:33:50;5.40;;;3.30;;
15990;SDS011;8100;50.994;4.538;2024-01-30T01:36:38;6.95;;;3.70;;
15990;SDS011;8100;50.994;4.538;2024-01-30T01:39:26;4.85;;;3.47;;
15990;SDS011;8100;50.994;4.538;2024-01-30T01:42:12;4.18;;;3.15;;
15990;SDS011;8100;50.994;4.538;2024-01-30T01:44:59;6.93;;;3.38;;
15990;SDS011;8100;50.994;4.538;2024-01-30T01:47:47;5.35;;;2.95;;
15990;SDS011;8100;50.994;4.538;2024-01-30T01:50:38;5.50;;;3.28;;
15990;SDS011;8100;50.994;4.538;2024-01-30T01:53:26;6.82;;;3.53;;
15990;SDS011;8100;50.994;4.538;2024-01-30T01:56:13;6.47;;;3.38;;
15990;SDS011;8100;50.994;4.538;2024-01-30T01:59:04;6.05;;;3.10;;
15990;SDS011;8100;50.994;4.538;2024-01-30T02:01:52;8.07;;;3.20;;
15990;SDS011;8100;50.994;4.538;2024-01-30T02:04:41;3.88;;;3.00;;
15990;SDS011;8100;50.994;4.538;2024-01-30T02:07:28;4.63;;;2.80;;
15990;SDS011;8100;50.994;4.538;2024-01-30T02:10:17;4.80;;;3.30;;
15990;SDS011;8100;50.994;4.538;2024-01-30T02:13:03;5.05;;;3.38;;
15990;SDS011;8100;50.994;4.538;2024-01-30T02:15:51;6.88;;;3.03;;
15990;SDS011;8100;50.994;4.538;2024-01-30T02:18:38;5.20;;;3.08;;
15990;SDS011;8100;50.994;4.538;2024-01-30T02:21:29;6.00;;;3.42;;
15990;SDS011;8100;50.994;4.538;2024-01-30T02:24:17;4.97;;;2.78;;
15990;SDS011;8100;50.994;4.538;2024-01-30T02:27:04;6.68;;;3.55;;
15990;SDS011;8100;50.994;4.538;2024-01-30T02:29:51;4.03;;;2.85;;
15990;SDS011;8100;50.994;4.538;2024-01-30T02:32:38;5.13;;;3.10;;
15990;SDS011;8100;50.994;4.538;2024-01-30T02:35:25;7.05;;;3.10;;
15990;SDS011;8100;50.994;4.538;2024-01-30T02:38:13;5.60;;;3.30;;
15990;SDS011;8100;50.994;4.538;2024-01-30T02:41:01;5.47;;;2.90;;
15990;SDS011;8100;50.994;4.538;2024-01-30T02:43:48;3.90;;;3.03;;
15990;SDS011;8100;50.994;4.538;2024-01-30T02:46:35;6.20;;;3.15;;
15990;SDS011;8100;50.994;4.538;2024-01-30T02:49:22;5.95;;;3.30;;
15990;SDS011;8100;50.994;4.538;2024-01-30T02:52:09;7.18;;;3.83;;
15990;SDS011;8100;50.994;4.538;2024-01-30T02:54:57;7.57;;;3.40;;
15990;SDS011;8100;50.994;4.538;2024-01-30T02:57:44;5.63;;;3.70;;
15990;SDS011;8100;50.994;4.538;2024-01-30T03:00:31;5.90;;;3.15;;
15990;SDS011;8100;50.994;4.538;2024-01-30T03:03:18;6.00;;;3.13;;
15990;SDS011;8100;50.994;4.538;2024-01-30T03:06:05;6.82;;;3.08;;
15990;SDS011;8100;50.994;4.538;2024-01-30T03:08:52;2.90;;;2.40;;
15990;SDS011;8100;50.994;4.538;2024-01-30T03:11:40;4.82;;;3.22;;
15990;SDS011;8100;50.994;4.538;2024-01-30T03:14:28;3.58;;;2.45;;
15990;SDS011;8100;50.994;4.538;2024-01-30T03:17:16;6.32;;;2.63;;
15990;SDS011;8100;50.994;4.538;2024-01-30T03:20:04;3.53;;;2.78;;
15990;SDS011;8100;50.994;4.538;2024-01-30T03:22:53;6.10;;;2.72;;
15990;SDS011;8100;50.994;4.538;2024-01-30T03:25:41;4.22;;;2.28;;
15990;SDS011;8100;50.994;4.538;2024-01-30T03:28:29;6.03;;;2.70;;
15990;SDS011;8100;50.994;4.538;2024-01-30T03:31:16;4.47;;;2.80;;
15990;SDS011;8100;50.994;4.538;2024-01-30T03:34:04;4.68;;;2.50;;
15990;SDS011;8100;50.994;4.538;2024-01-30T03:36:51;6.65;;;2.65;;
15990;SDS011;8100;50.994;4.538;2024-01-30T03:39:38;4.68;;;2.83;;
15990;SDS011;8100;50.994;4.538;2024-01-30T03:42:25;7.20;;;2.60;;
15990;SDS011;8100;50.994;4.538;2024-01-30T03:45:13;4.57;;;2.80;;
15990;SDS011;8100;50.994;4.538;2024-01-30T03:48:00;3.38;;;2.50;;
15990;SDS011;8100;50.994;4.538;2024-01-30T03:50:47;5.65;;;2.90;;
15990;SDS011;8100;50.994;4.538;2024-01-30T03:53:34;4.05;;;2.25;;
15990;SDS011;8100;50.994;4.538;2024-01-30T03:56:21;4.25;;;2.70;;
15990;SDS011;8100;50.994;4.538;2024-01-30T03:59:11;4.90;;;2.67;;
15990;SDS011;8100;50.994;4.538;2024-01-30T04:01:59;4.03;;;2.72;;
15990;SDS011;8100;50.994;4.538;2024-01-30T04:04:46;3.85;;;2.60;;
15990;SDS011;8100;50.994;4.538;2024-01-30T04:07:33;5.78;;;2.72;;
15990;SDS011;8100;50.994;4.538;2024-01-30T04:10:20;4.53;;;2.70;;
15990;SDS011;8100;50.994;4.538;2024-01-30T04:13:07;4.90;;;2.80;;
15990;SDS011;8100;50.994;4.538;2024-01-30T04:15:54;7.32;;;2.42;;
15990;SDS011;8100;50.994;4.538;2024-01-30T04:18:43;4.10;;;2.47;;
15990;SDS011;8100;50.994;4.538;2024-01-30T04:21:30;8.52;;;2.70;;
15990;SDS011;8100;50.994;4.538;2024-01-30T04:24:16;7.93;;;2.97;;
15990;SDS011;8100;50.994;4.538;2024-01-30T04:27:04;6.80;;;2.70;;
15990;SDS011;8100;50.994;4.538;2024-01-30T04:29:51;3.78;;;2.80;;
15990;SDS011;8100;50.994;4.538;2024-01-30T04:32:37;5.78;;;2.83;;
15990;SDS011;8100;50.994;4.538;2024-01-30T04:35:26;3.83;;;2.42;;
15990;SDS011;8100;50.994;4.538;2024-01-30T04:38:13;4.82;;;2.53;;
15990;SDS011;8100;50.994;4.538;2024-01-30T04:41:00;4.85;;;2.50;;
15990;SDS011;8100;50.994;4.538;2024-01-30T04:43:47;5.95;;;2.47;;
15990;SDS011;8100;50.994;4.538;2024-01-30T04:46:33;4.60;;;2.75;;
15990;SDS011;8100;50.994;4.538;2024-01-30T04:49:20;4.68;;;2.92;;
15990;SDS011;8100;50.994;4.538;2024-01-30T04:52:09;4.55;;;2.78;;
15990;SDS011;8100;50.994;4.538;2024-01-30T04:54:56;5.47;;;2.90;;
15990;SDS011;8100;50.994;4.538;2024-01-30T04:57:43;4.80;;;2.50;;
15990;SDS011;8100;50.994;4.538;2024-01-30T05:00:30;5.82;;;2.88;;
15990;SDS011;8100;50.994;4.538;2024-01-30T05:03:17;6.10;;;2.97;;
15990;SDS011;8100;50.994;4.538;2024-01-30T05:06:05;4.60;;;2.88;;
15990;SDS011;8100;50.994;4.538;2024-01-30T05:08:54;5.22;;;2.95;;
15990;SDS011;8100;50.994;4.538;2024-01-30T05:11:41;4.50;;;2.75;;
15990;SDS011;8100;50.994;4.538;2024-01-30T05:14:28;4.13;;;2.72;;
15990;SDS011;8100;50.994;4.538;2024-01-30T05:17:15;7.35;;;2.92;;
15990;SDS011;8100;50.994;4.538;2024-01-30T05:20:02;5.45;;;2.97;;
15990;SDS011;8100;50.994;4.538;2024-01-30T05:22:50;6.50;;;3.00;;
15990;SDS011;8100;50.994;4.538;2024-01-30T05:25:38;5.43;;;2.72;;
15990;SDS011;8100;50.994;4.538;2024-01-30T05:28:26;5.03;;;2.67;;
15990;SDS011;8100;50.994;4.538;2024-01-30T05:31:13;4.20;;;2.78;;
15990;SDS011;8100;50.994;4.538;2024-01-30T05:34:00;6.13;;;2.97;;
15990;SDS011;8100;50.994;4.538;2024-01-30T05:36:47;5.40;;;2.83;;
15990;SDS011;8100;50.994;4.538;2024-01-30T05:39:34;4.82;;;2.88;;
15990;SDS011;8100;50.994;4.538;2024-01-30T05:42:22;5.68;;;3.08;;
15990;SDS011;8100;50.994;4.538;2024-01-30T05:45:09;5.78;;;2.92;;
15990;SDS011;8100;50.994;4.538;2024-01-30T05:47:56;5.18;;;3.25;;
15990;SDS011;8100;50.994;4.538;2024-01-30T05:50:43;4.75;;;3.20;;
15990;SDS011;8100;50.994;4.538;2024-01-30T05:53:30;4.53;;;3.00;;
15990;SDS011;8100;50.994;4.538;2024-01-30T05:56:17;8.18;;;3.25;;
15990;SDS011;8100;50.994;4.538;2024-01-30T05:59:06;5.63;;;3.20;;
15990;SDS011;8100;50.994;4.538;2024-01-30T06:01:53;7.47;;;4.00;;
15990;SDS011;8100;50.994;4.538;2024-01-30T06:04:40;8.40;;;4.50;;
15990;SDS011;8100;50.994;4.538;2024-01-30T06:07:27;8.13;;;4.72;;
15990;SDS011;8100;50.994;4.538;2024-01-30T06:10:14;5.20;;;3.67;;
15990;SDS011;8100;50.994;4.538;2024-01-30T06:13:01;7.80;;;4.05;;
15990;SDS011;8100;50.994;4.538;2024-01-30T06:15:49;8.57;;;4.10;;
15990;SDS011;8100;50.994;4.538;2024-01-30T06:18:36;6.88;;;3.38;;
15990;SDS011;8100;50.994;4.538;2024-01-30T06:21:24;6.13;;;3.20;;
15990;SDS011;8100;50.994;4.538;2024-01-30T06:24:11;5.93;;;3.47;;
15990;SDS011;8100;50.994;4.538;2024-01-30T06:26:59;4.85;;;3.15;;
15990;SDS011;8100;50.994;4.538;2024-01-30T06:29:46;5.63;;;3.30;;
15990;SDS011;8100;50.994;4.538;2024-01-30T06:32:34;5.50;;;2.90;;
15990;SDS011;8100;50.994;4.538;2024-01-30T06:35:21;7.22;;;3.40;;
15990;SDS011;8100;50.994;4.538;2024-01-30T06:38:08;5.15;;;3.30;;
15990;SDS011;8100;50.994;4.538;2024-01-30T06:40:55;8.13;;;3.13;;
15990;SDS011;8100;50.994;4.538;2024-01-30T06:43:42;5.65;;;3.13;;
15990;SDS011;8100;50.994;4.538;2024-01-30T06:46:30;3.97;;;3.17;;
15990;SDS011;8100;50.994;4.538;2024-01-30T06:49:19;7.25;;;3.65;;
15990;SDS011;8100;50.994;4.538;2024-01-30T06:52:07;5.45;;;2.92;;
15990;SDS011;8100;50.994;4.538;2024-01-30T06:54:54;7.10;;;3.05;;
15990;SDS011;8100;50.994;4.538;2024-01-30T06:57:41;8.25;;;3.10;;
15990;SDS011;8100;50.994;4.538;2024-01-30T07:00:28;4.32;;;3.30;;
15990;SDS011;8100;50.994;4.538;2024-01-30T07:03:15;6.93;;;3.55;;
15990;SDS011;8100;50.994;4.538;2024-01-30T07:06:04;6.53;;;3.50;;
15990;SDS011;8100;50.994;4.538;2024-01-30T07:08:51;5.35;;;3.35;;
15990;SDS011;8100;50.994;4.538;2024-01-30T07:11:38;3.80;;;2.88;;
15990;SDS011;8100;50.994;4.538;2024-01-30T07:14:25;6.45;;;3.20;;
15990;SDS011;8100;50.994;4.538;2024-01-30T07:17:12;4.90;;;3.28;;
15990;SDS011;8100;50.994;4.538;2024-01-30T07:19:59;5.45;;;3.20;;
15990;SDS011;8100;50.994;4.538;2024-01-30T07:22:47;7.40;;;3.53;;
15990;SDS011;8100;50.994;4.538;2024-01-30T07:25:34;6.10;;;3.78;;
15990;SDS011;8100;50.994;4.538;2024-01-30T07:28:21;7.72;;;4.07;;
15990;SDS011;8100;50.994;4.538;2024-01-30T07:31:09;5.03;;;2.97;;
15990;SDS011;8100;50.994;4.538;2024-01-30T07:33:56;9.23;;;3.03;;
15990;SDS011;8100;50.994;4.538;2024-01-30T07:36:43;8.23;;;3.00;;
15990;SDS011;8100;50.994;4.538;2024-01-30T07:39:31;7.65;;;3.42;;
15990;SDS011;8100;50.994;4.538;2024-01-30T07:42:18;7.93;;;3.20;;
15990;SDS011;8100;50.994;4.538;2024-01-30T07:45:05;6.97;;;3.22;;
15990;SDS011;8100;50.994;4.538;2024-01-30T07:47:52;7.32;;;3.20;;
15990;SDS011;8100;50.994;4.538;2024-01-30T07:50:39;8.68;;;3.03;;
15990;SDS011;8100;50.994;4.538;2024-01-30T07:53:27;5.35;;;3.08;;
15990;SDS011;8100;50.994;4.538;2024-01-30T07:56:15;9.15;;;3.33;;
15990;SDS011;8100;50.994;4.538;2024-01-30T07:59:02;7.22;;;2.88;;
15990;SDS011;8100;50.994;4.538;2024-01-30T08:01:49;8.85;;;3.40;;
15990;SDS011;8100;50.994;4.538;2024-01-30T08:04:36;4.80;;;2.92;;
15990;SDS011;8100;50.994;4.538;2024-01-30T08:07:23;7.85;;;3.80;;
15990;SDS011;8100;50.994;4.538;2024-01-30T08:10:11;6.43;;;2.45;;
15990;SDS011;8100;50.994;4.538;2024-01-30T08:13:00;7.05;;;3.10;;
15990;SDS011;8100;50.994;4.538;2024-01-30T08:15:47;9.10;;;3.85;;
15990;SDS011;8100;50.994;4.538;2024-01-30T08:18:34;4.97;;;3.20;;
15990;SDS011;8100;50.994;4.538;2024-01-30T08:21:21;9.63;;;4.00;;
15990;SDS011;8100;50.994;4.538;2024-01-30T08:24:08;8.07;;;3.88;;
15990;SDS011;8100;50.994;4.538;2024-01-30T08:26:56;5.72;;;3.45;;
15990;SDS011;8100;50.994;4.538;2024-01-30T08:29:47;14.02;;;4.25;;
15990;SDS011;8100;50.994;4.538;2024-01-30T08:32:35;7.47;;;3.35;;
15990;SDS011;8100;50.994;4.538;2024-01-30T08:35:22;5.82;;;2.88;;
15990;SDS011;8100;50.994;4.538;2024-01-30T08:38:09;10.80;;;3.85;;
15990;SDS011;8100;50.994;4.538;2024-01-30T08:40:57;8.00;;;3.67;;
15990;SDS011;8100;50.994;4.538;2024-01-30T08:43:44;6.53;;;3.25;;
15990;SDS011;8100;50.994;4.538;2024-01-30T08:46:33;7.70;;;3.45;;
15990;SDS011;8100;50.994;4.538;2024-01-30T08:49:20;9.50;;;3.75;;
15990;SDS011;8100;50.994;4.538;2024-01-30T08:52:07;7.38;;;3.50;;
15990;SDS011;8100;50.994;4.538;2024-01-30T08:54:54;8.30;;;3.80;;
15990;SDS011;8100;50.994;4.538;2024-01-30T08:57:41;7.10;;;3.63;;
15990;SDS011;8100;50.994;4.538;2024-01-30T09:00:28;9.60;;;3.45;;
15990;SDS011;8100;50.994;4.538;2024-01-30T09:03:16;8.65;;;3.47;;
15990;SDS011;8100;50.994;4.538;2024-01-30T09:06:04;8.60;;;3.72;;
15990;SDS011;8100;50.994;4.538;2024-01-30T09:08:54;5.65;;;3.40;;
15990;SDS011;8100;50.994;4.538;2024-01-30T09:11:43;11.02;;;3.67;;
15990;SDS011;8100;50.994;4.538;2024-01-30T09:14:30;11.63;;;3.60;;
15990;SDS011;8100;50.994;4.538;2024-01-30T09:17:17;11.40;;;3.42;;
15990;SDS011;8100;50.994;4.538;2024-01-30T09:20:06;6.13;;;3.83;;
15990;SDS011;8100;50.994;4.538;2024-01-30T09:22:54;6.60;;;3.28;;
15990;SDS011;8100;50.994;4.538;2024-01-30T09:25:41;8.25;;;3.67;;
15990;SDS011;8100;50.994;4.538;2024-01-30T09:28:28;7.75;;;3.70;;
15990;SDS011;8100;50.994;4.538;2024-01-30T09:31:15;8.52;;;3.75;;
15990;SDS011;8100;50.994;4.538;2024-01-30T09:34:02;7.40;;;3.60;;
15990;SDS011;8100;50.994;4.538;2024-01-30T09:36:50;9.00;;;4.00;;
15990;SDS011;8100;50.994;4.538;2024-01-30T09:39:37;8.35;;;3.75;;
15990;SDS011;8100;50.994;4.538;2024-01-30T09:42:26;7.57;;;3.72;;
15990;SDS011;8100;50.994;4.538;2024-01-30T09:45:19;7.72;;;3.58;;
15990;SDS011;8100;50.994;4.538;2024-01-30T09:48:09;6.32;;;3.80;;
15990;SDS011;8100;50.994;4.538;2024-01-30T09:50:57;9.50;;;4.25;;
15990;SDS011;8100;50.994;4.538;2024-01-30T09:53:47;11.65;;;3.97;;
15990;SDS011;8100;50.994;4.538;2024-01-30T09:56:35;7.28;;;4.18;;
15990;SDS011;8100;50.994;4.538;2024-01-30T09:59:22;10.93;;;4.20;;
15990;SDS011;8100;50.994;4.538;2024-01-30T10:02:09;8.90;;;4.55;;
15990;SDS011;8100;50.994;4.538;2024-01-30T10:04:57;11.65;;;4.82;;
15990;SDS011;8100;50.994;4.538;2024-01-30T10:07:49;6.20;;;4.03;;
15990;SDS011;8100;50.994;4.538;2024-01-30T10:10:40;11.10;;;4.25;;
15990;SDS011;8100;50.994;4.538;2024-01-30T10:13:27;10.48;;;4.47;;
15990;SDS011;8100;50.994;4.538;2024-01-30T10:16:14;8.05;;;4.10;;
15990;SDS011;8100;50.994;4.538;2024-01-30T10:19:01;9.43;;;4.53;;
15990;SDS011;8100;50.994;4.538;2024-01-30T10:21:49;8.02;;;3.97;;
15990;SDS011;8100;50.994;4.538;2024-01-30T10:24:36;8.98;;;4.13;;
15990;SDS011;8100;50.994;4.538;2024-01-30T10:27:25;10.93;;;4.68;;
15990;SDS011;8100;50.994;4.538;2024-01-30T10:30:13;9.68;;;4.53;;
15990;SDS011;8100;50.994;4.538;2024-01-30T10:33:00;14.05;;;4.70;;
15990;SDS011;8100;50.994;4.538;2024-01-30T10:35:48;10.20;;;4.72;;
15990;SDS011;8100;50.994;4.538;2024-01-30T10:38:36;18.08;;;4.97;;
15990;SDS011;8100;50.994;4.538;2024-01-30T10:41:28;10.43;;;4.78;;
15990;SDS011;8100;50.994;4.538;2024-01-30T10:44:19;11.95;;;5.15;;
15990;SDS011;8100;50.994;4.538;2024-01-30T10:47:10;9.82;;;4.80;;
15990;SDS011;8100;50.994;4.538;2024-01-30T10:49:59;8.02;;;4.70;;
15990;SDS011;8100;50.994;4.538;2024-01-30T10:52:47;7.60;;;4.10;;
15990;SDS011;8100;50.994;4.538;2024-01-30T10:55:34;6.47;;;3.72;;
15990;SDS011;8100;50.994;4.538;2024-01-30T10:58:23;5.90;;;2.80;;
15990;SDS011;8100;50.994;4.538;2024-01-30T11:01:11;8.93;;;2.35;;
15990;SDS011;8100;50.994;4.538;2024-01-30T11:03:59;5.45;;;2.10;;
15990;SDS011;8100;50.994;4.538;2024-01-30T11:06:46;2.72;;;1.15;;
15990;SDS011;8100;50.994;4.538;2024-01-30T11:09:36;2.78;;;1.35;;
15990;SDS011;8100;50.994;4.538;2024-01-30T11:12:23;1.60;;;1.00;;
15990;SDS011;8100;50.994;4.538;2024-01-30T11:15:11;2.15;;;1.13;;
15990;SDS011;8100;50.994;4.538;2024-01-30T11:18:00;4.10;;;0.93;;
15990;SDS011;8100;50.994;4.538;2024-01-30T11:20:47;2.72;;;0.80;;
15990;SDS011;8100;50.994;4.538;2024-01-30T11:23:35;4.28;;;0.63;;
15990;SDS011;8100;50.994;4.538;2024-01-30T11:26:23;2.38;;;0.75;;
15990;SDS011;8100;50.994;4.538;2024-01-30T11:29:14;2.97;;;0.93;;
15990;SDS011;8100;50.994;4.538;2024-01-30T11:32:01;4.88;;;1.00;;
15990;SDS011;8100;50.994;4.538;2024-01-30T11:34:50;0.98;;;0.63;;
15990;SDS011;8100;50.994;4.538;2024-01-30T11:37:37;4.70;;;0.90;;
15990;SDS011;8100;50.994;4.538;2024-01-30T11:40:25;4.03;;;1.08;;
15990;SDS011;8100;50.994;4.538;2024-01-30T11:43:14;3.13;;;0.93;;
15990;SDS011;8100;50.994;4.538;2024-01-30T11:46:05;1.60;;;0.70;;
15990;SDS011;8100;50.994;4.538;2024-01-30T11:48:53;1.40;;;0.40;;
15990;SDS011;8100;50.994;4.538;2024-01-30T11:51:41;0.60;;;0.50;;
15990;SDS011;8100;50.994;4.538;2024-01-30T11:54:28;3.05;;;0.50;;
15990;SDS011;8100;50.994;4.538;2024-01-30T11:57:15;0.32;;;0.25;;
15990;SDS011;8100;50.994;4.538;2024-01-30T12:00:03;1.50;;;0.40;;
15990;SDS011;8100;50.994;4.538;2024-01-30T12:02:55;2.25;;;0.30;;
15990;SDS011;8100;50.994;4.538;2024-01-30T12:05:42;2.45;;;0.47;;
15990;SDS011;8100;50.994;4.538;2024-01-30T12:08:31;3.97;;;0.57;;
15990;SDS011;8100;50.994;4.538;2024-01-30T12:11:18;0.60;;;0.40;;
15990;SDS011;8100;50.994;4.538;2024-01-30T12:14:05;3.08;;;0.60;;
15990;SDS011;8100;50.994;4.538;2024-01-30T12:16:52;3.85;;;0.40;;
15990;SDS011;8100;50.994;4.538;2024-01-30T12:19:39;1.63;;;0.52;;
15990;SDS011;8100;50.994;4.538;2024-01-30T12:22:26;1.55;;;0.40;;
15990;SDS011;8100;50.994;4.538;2024-01-30T12:25:15;1.35;;;0.60;;
15990;SDS011;8100;50.994;4.538;2024-01-30T12:28:03;1.92;;;0.28;;
15990;SDS011;8100;50.994;4.538;2024-01-30T12:30:54;0.28;;;0.20;;
15990;SDS011;8100;50.994;4.538;2024-01-30T12:33:42;2.42;;;0.60;;
15990;SDS011;8100;50.994;4.538;2024-01-30T12:36:29;1.15;;;0.40;;
15990;SDS011;8100;50.994;4.538;2024-01-30T12:39:16;4.97;;;0.60;;
15990;SDS011;8100;50.994;4.538;2024-01-30T12:42:05;4.90;;;0.40;;
15990;SDS011;8100;50.994;4.538;2024-01-30T12:44:52;1.63;;;0.40;;
15990;SDS011;8100;50.994;4.538;2024-01-30T12:47:39;1.60;;;0.30;;
15990;SDS011;8100;50.994;4.538;2024-01-30T12:50:26;1.08;;;0.38;;
15990;SDS011;8100;50.994;4.538;2024-01-30T12:53:13;1.48;;;0.40;;
15990;SDS011;8100;50.994;4.538;2024-01-30T12:56:00;1.38;;;0.30;;
15990;SDS011;8100;50.994;4.538;2024-01-30T12:58:48;1.65;;;0.55;;
15990;SDS011;8100;50.994;4.538;2024-01-30T13:01:35;1.23;;;0.63;;
15990;SDS011;8100;50.994;4.538;2024-01-30T13:04:22;1.75;;;0.55;;
15990;SDS011;8100;50.994;4.538;2024-01-30T13:07:10;1.80;;;0.40;;
15990;SDS011;8100;50.994;4.538;2024-01-30T13:09:57;2.25;;;0.45;;
15990;SDS011;8100;50.994;4.538;2024-01-30T13:12:47;0.93;;;0.40;;
15990;SDS011;8100;50.994;4.538;2024-01-30T13:15:36;2.50;;;0.40;;
15990;SDS011;8100;50.994;4.538;2024-01-30T13:18:23;1.30;;;0.40;;
15990;SDS011;8100;50.994;4.538;2024-01-30T13:21:10;2.08;;;0.40;;
15990;SDS011;8100;50.994;4.538;2024-01-30T13:23:57;1.55;;;0.32;;
15990;SDS011;8100;50.994;4.538;2024-01-30T13:26:45;2.08;;;0.57;;
15990;SDS011;8100;50.994;4.538;2024-01-30T13:29:32;1.52;;;0.40;;
15990;SDS011;8100;50.994;4.538;2024-01-30T13:32:20;0.60;;;0.30;;
15990;SDS011;8100;50.994;4.538;2024-01-30T13:35:07;1.60;;;0.45;;
15990;SDS011;8100;50.994;4.538;2024-01-30T13:37:54;2.25;;;0.30;;
15990;SDS011;8100;50.994;4.538;2024-01-30T13:40:41;4.68;;;0.57;;
15990;SDS011;8100;50.994;4.538;2024-01-30T13:43:28;1.85;;;0.50;;
15990;SDS011;8100;50.994;4.538;2024-01-30T13:46:15;3.08;;;0.57;;
15990;SDS011;8100;50.994;4.538;2024-01-30T13:49:03;1.17;;;0.40;;
15990;SDS011;8100;50.994;4.538;2024-01-30T13:51:51;1.85;;;0.50;;
15990;SDS011;8100;50.994;4.538;2024-01-30T13:54:38;1.02;;;0.35;;
15990;SDS011;8100;50.994;4.538;2024-01-30T13:57:25;3.83;;;0.40;;
15990;SDS011;8100;50.994;4.538;2024-01-30T14:00:12;1.15;;;0.30;;
15990;SDS011;8100;50.994;4.538;2024-01-30T14:03:01;1.52;;;0.50;;
15990;SDS011;8100;50.994;4.538;2024-01-30T14:05:50;2.30;;;0.52;;
15990;SDS011;8100;50.994;4.538;2024-01-30T14:08:37;1.50;;;0.60;;
15990;SDS011;8100;50.994;4.538;2024-01-30T14:11:24;3.30;;;0.60;;
15990;SDS011;8100;50.994;4.538;2024-01-30T14:14:11;1.80;;;0.50;;
15990;SDS011;8100;50.994;4.538;2024-01-30T14:16:58;2.85;;;0.57;;
15990;SDS011;8100;50.994;4.538;2024-01-30T14:19:45;1.98;;;0.50;;
15990;SDS011;8100;50.994;4.538;2024-01-30T14:22:34;2.13;;;0.57;;
15990;SDS011;8100;50.994;4.538;2024-01-30T14:25:21;1.05;;;0.55;;
15990;SDS011;8100;50.994;4.538;2024-01-30T14:28:07;2.60;;;0.52;;
15990;SDS011;8100;50.994;4.538;2024-01-30T14:30:54;2.75;;;0.40;;
15990;SDS011;8100;50.994;4.538;2024-01-30T14:33:42;0.88;;;0.45;;
15990;SDS011;8100;50.994;4.538;2024-01-30T14:36:29;3.58;;;0.38;;
15990;SDS011;8100;50.994;4.538;2024-01-30T14:39:17;1.77;;;0.70;;
15990;SDS011;8100;50.994;4.538;2024-01-30T14:42:05;3.20;;;0.47;;
15990;SDS011;8100;50.994;4.538;2024-01-30T14:44:52;2.40;;;0.60;;
15990;SDS011;8100;50.994;4.538;2024-01-30T14:47:39;1.63;;;0.50;;
15990;SDS011;8100;50.994;4.538;2024-01-30T14:50:26;2.95;;;0.55;;
15990;SDS011;8100;50.994;4.538;2024-01-30T14:53:14;1.00;;;0.57;;
15990;SDS011;8100;50.994;4.538;2024-01-30T14:56:03;2.45;;;0.60;;
15990;SDS011;8100;50.994;4.538;2024-01-30T14:58:50;0.98;;;0.43;;
15990;SDS011;8100;50.994;4.538;2024-01-30T15:01:37;0.57;;;0.40;;
15990;SDS011;8100;50.994;4.538;2024-01-30T15:04:24;3.15;;;0.60;;
15990;SDS011;8100;50.994;4.538;2024-01-30T15:07:11;0.70;;;0.43;;
15990;SDS011;8100;50.994;4.538;2024-01-30T15:09:58;0.75;;;0.60;;
15990;SDS011;8100;50.994;4.538;2024-01-30T15:12:47;1.40;;;0.77;;
15990;SDS011;8100;50.994;4.538;2024-01-30T15:15:34;3.17;;;0.65;;
15990;SDS011;8100;50.994;4.538;2024-01-30T15:18:21;3.38;;;0.85;;
15990;SDS011;8100;50.994;4.538;2024-01-30T15:21:08;1.75;;;0.73;;
15990;SDS011;8100;50.994;4.538;2024-01-30T15:23:55;3.20;;;0.60;;
15990;SDS011;8100;50.994;4.538;2024-01-30T15:26:42;2.42;;;0.68;;
15990;SDS011;8100;50.994;4.538;2024-01-30T15:29:30;2.35;;;0.70;;
15990;SDS011;8100;50.994;4.538;2024-01-30T15:32:17;2.92;;;0.90;;
15990;SDS011;8100;50.994;4.538;2024-01-30T15:35:05;2.40;;;0.50;;
15990;SDS011;8100;50.994;4.538;2024-01-30T15:37:53;4.72;;;0.90;;
15990;SDS011;8100;50.994;4.538;2024-01-30T15:40:40;2.80;;;0.60;;
15990;SDS011;8100;50.994;4.538;2024-01-30T15:43:27;1.55;;;0.50;;
15990;SDS011;8100;50.994;4.538;2024-01-30T15:46:15;1.13;;;0.60;;
15990;SDS011;8100;50.994;4.538;2024-01-30T15:49:02;2.78;;;0.80;;
15990;SDS011;8100;50.994;4.538;2024-01-30T15:51:49;2.65;;;0.60;;
15990;SDS011;8100;50.994;4.538;2024-01-30T15:54:36;4.00;;;0.60;;
15990;SDS011;8100;50.994;4.538;2024-01-30T15:57:23;2.28;;;0.55;;
15990;SDS011;8100;50.994;4.538;2024-01-30T16:00:11;1.63;;;0.65;;
15990;SDS011;8100;50.994;4.538;2024-01-30T16:03:00;1.75;;;0.68;;
15990;SDS011;8100;50.994;4.538;2024-01-30T16:05:47;4.07;;;0.85;;
15990;SDS011;8100;50.994;4.538;2024-01-30T16:08:34;2.33;;;0.57;;
15990;SDS011;8100;50.994;4.538;2024-01-30T16:11:21;2.42;;;0.60;;
15990;SDS011;8100;50.994;4.538;2024-01-30T16:14:09;1.75;;;0.60;;
15990;SDS011;8100;50.994;4.538;2024-01-30T16:16:56;2.67;;;0.63;;
15990;SDS011;8100;50.994;4.538;2024-01-30T16:19:44;2.13;;;0.57;;
15990;SDS011;8100;50.994;4.538;2024-01-30T16:22:31;2.22;;;0.65;;
15990;SDS011;8100;50.994;4.538;2024-01-30T16:25:18;5.40;;;0.77;;
15990;SDS011;8100;50.994;4.538;2024-01-30T16:28:06;3.00;;;1.00;;
15990;SDS011;8100;50.994;4.538;2024-01-30T16:30:53;3.45;;;1.13;;
15990;SDS011;8100;50.994;4.538;2024-01-30T16:33:40;3.35;;;1.35;;
15990;SDS011;8100;50.994;4.538;2024-01-30T16:36:28;3.17;;;1.42;;
15990;SDS011;8100;50.994;4.538;2024-01-30T16:39:15;1.95;;;1.08;;
15990;SDS011;8100;50.994;4.538;2024-01-30T16:42:02;3.35;;;1.50;;
15990;SDS011;8100;50.994;4.538;2024-01-30T16:44:49;4.60;;;1.52;;
15990;SDS011;8100;50.994;4.538;2024-01-30T16:47:36;4.35;;;1.90;;
15990;SDS011;8100;50.994;4.538;2024-01-30T16:50:23;3.63;;;1.52;;
15990;SDS011;8100;50.994;4.538;2024-01-30T16:53:12;3.15;;;1.60;;
15990;SDS011;8100;50.994;4.538;2024-01-30T16:55:59;2.33;;;1.27;;
15990;SDS011;8100;50.994;4.538;2024-01-30T16:58:46;4.88;;;1.63;;
15990;SDS011;8100;50.994;4.538;2024-01-30T17:01:33;2.28;;;1.30;;
15990;SDS011;8100;50.994;4.538;2024-01-30T17:04:20;4.03;;;1.60;;